createdAt,value
2022-11-28T00:00:45.670Z,81.26
2022-11-28T00:06:40.308Z,81.46
2022-11-28T00:12:34.120Z,81.37
2022-11-28T00:18:27.018Z,81.78
2022-11-28T00:24:19.723Z,81.92
2022-11-28T00:30:11.931Z,81.79
2022-11-28T00:36:05.737Z,82.38
2022-11-28T00:41:57.330Z,82.24
2022-11-28T00:47:50.022Z,82.79
2022-11-28T00:53:43.919Z,82.71
2022-11-28T00:59:36.668Z,82.84
2022-11-28T01:05:28.810Z,83.20
2022-11-28T01:11:21.348Z,83.55
2022-11-28T01:17:13.623Z,83.65
2022-11-28T01:23:05.941Z,83.62
2022-11-28T01:29:00.232Z,83.82
2022-11-28T01:34:53.029Z,84.10
2022-11-28T01:40:46.870Z,84.95
2022-11-28T01:46:38.891Z,84.72
2022-11-28T01:52:31.159Z,84.23
2022-11-28T01:58:24.529Z,83.77
2022-11-28T02:04:16.900Z,83.29
2022-11-28T02:10:12.395Z,82.82
2022-11-28T02:16:26.463Z,82.69
2022-11-28T02:22:34.408Z,82.30
2022-11-28T02:28:49.038Z,82.85
2022-11-28T02:34:47.281Z,82.11
2022-11-28T02:40:57.579Z,81.76
2022-11-28T02:46:55.491Z,81.58
2022-11-28T02:52:55.911Z,81.09
2022-11-28T02:58:48.068Z,81.11
2022-11-28T03:04:52.119Z,80.77
2022-11-28T03:11:10.699Z,80.59
2022-11-28T03:17:21.979Z,81.25
2022-11-28T03:23:16.516Z,81.34
2022-11-28T03:29:37.267Z,81.29
2022-11-28T03:35:34.381Z,81.16
2022-11-28T03:41:39.129Z,81.28
2022-11-28T03:47:37.909Z,81.09
2022-11-28T03:53:42.839Z,80.98
2022-11-28T03:59:49.298Z,81.52
2022-11-28T04:06:06.119Z,82.36
2022-11-28T04:12:05.049Z,82.40
2022-11-28T04:18:11.094Z,82.50
2022-11-28T04:24:08.540Z,82.46
2022-11-28T04:30:03.621Z,82.83
2022-11-28T04:35:57.219Z,82.38
2022-11-28T04:41:54.339Z,81.90
2022-11-28T04:47:46.259Z,82.04
2022-11-28T04:54:05.019Z,82.17
2022-11-28T04:59:57.850Z,82.46
2022-11-28T05:05:51.961Z,81.53
2022-11-28T05:11:44.184Z,81.55
2022-11-28T05:17:41.698Z,81.67
2022-11-28T05:23:34.085Z,81.80
2022-11-28T05:29:26.190Z,81.95
2022-11-28T05:35:18.563Z,82.21
2022-11-28T05:41:22.421Z,81.95
2022-11-28T05:47:16.096Z,81.76
2022-11-28T05:53:09.306Z,81.71
2022-11-28T05:59:01.501Z,81.77
2022-11-28T06:04:53.687Z,81.81
2022-11-28T06:10:46.507Z,81.77
2022-11-28T06:16:38.590Z,81.70
2022-11-28T06:22:31.308Z,81.74
2022-11-28T06:28:23.539Z,81.37
2022-11-28T06:34:15.577Z,81.28
2022-11-28T06:40:08.230Z,81.84
2022-11-28T06:46:00.980Z,81.13
2022-11-28T06:51:53.909Z,81.30
2022-11-28T06:57:46.780Z,80.62
2022-11-28T07:03:45.024Z,80.54
2022-11-28T07:09:38.308Z,80.30
2022-11-28T07:15:31.290Z,79.62
2022-11-28T07:21:24.807Z,79.02
2022-11-28T07:27:18.221Z,79.32
2022-11-28T07:33:11.745Z,78.82
2022-11-28T07:39:06.063Z,78.52
2022-11-28T07:44:58.685Z,78.24
2022-11-28T07:50:50.667Z,76.85
2022-11-28T07:57:11.844Z,75.52
2022-11-28T08:02:54.700Z,74.75
2022-11-28T08:08:47.543Z,73.77
2022-11-28T08:14:39.647Z,72.04
2022-11-28T08:20:31.705Z,72.72
2022-11-28T08:26:29.092Z,73.18
2022-11-28T08:32:23.139Z,73.02
2022-11-28T08:38:16.081Z,72.27
2022-11-28T08:44:09.185Z,72.59
2022-11-28T08:50:02.303Z,72.76
2022-11-28T08:55:54.951Z,72.28
2022-11-28T09:01:46.989Z,71.85
2022-11-28T09:07:39.715Z,71.92
2022-11-28T09:13:32.223Z,70.23
2022-11-28T09:19:24.784Z,69.51
2022-11-28T09:25:17.268Z,70.61
2022-11-28T09:31:13.020Z,70.28
2022-11-28T09:37:05.250Z,70.12
2022-11-28T09:43:06.383Z,68.78
2022-11-28T09:49:03.546Z,67.42
2022-11-28T09:55:28.492Z,68.20
2022-11-28T10:01:43.330Z,69.86
2022-11-28T10:08:04.799Z,69.36
2022-11-28T10:14:29.229Z,69.38
2022-11-28T10:20:25.932Z,71.09
2022-11-28T10:26:17.913Z,71.10
2022-11-28T10:32:16.683Z,71.15
2022-11-28T10:38:14.215Z,72.00
2022-11-28T10:44:33.803Z,71.44
2022-11-28T10:50:44.301Z,71.44
2022-11-28T10:57:03.153Z,72.08
2022-11-28T11:02:57.125Z,71.27
2022-11-28T11:08:49.583Z,72.22
2022-11-28T11:14:43.884Z,72.05
2022-11-28T11:20:39.403Z,71.19
2022-11-28T11:26:42.481Z,70.25
2022-11-28T11:32:35.604Z,68.92
2022-11-28T11:38:37.922Z,68.84
2022-11-28T11:44:34.931Z,69.00
2022-11-28T11:50:33.371Z,69.96
2022-11-28T11:56:26.101Z,70.42
2022-11-28T12:02:33.102Z,69.96
2022-11-28T12:08:34.162Z,71.17
2022-11-28T12:14:33.128Z,71.74
2022-11-28T12:20:50.282Z,71.41
2022-11-28T12:26:47.909Z,72.50
2022-11-28T12:32:59.586Z,72.00
2022-11-28T12:39:05.066Z,72.90
2022-11-28T12:45:09.383Z,73.15
2022-11-28T12:51:23.197Z,73.65
2022-11-28T12:57:34.701Z,74.15
2022-11-28T13:04:01.745Z,73.84
2022-11-28T13:10:45.544Z,73.96
2022-11-28T13:16:55.943Z,74.38
2022-11-28T13:22:57.823Z,74.72
2022-11-28T13:28:57.785Z,74.39
2022-11-28T13:34:51.223Z,74.60
2022-11-28T13:40:49.634Z,74.24
2022-11-28T13:46:44.218Z,74.34
2022-11-28T13:52:43.226Z,74.53
2022-11-28T13:58:49.542Z,74.49
2022-11-28T14:04:44.637Z,74.81
2022-11-28T14:10:50.327Z,75.25
2022-11-28T14:17:12.183Z,75.54
2022-11-28T14:23:20.141Z,76.10
2022-11-28T14:29:35.367Z,76.13
2022-11-28T14:35:52.710Z,77.23
2022-11-28T14:42:06.994Z,77.20
2022-11-28T14:48:19.835Z,77.50
2022-11-28T14:54:26.100Z,77.46
2022-11-28T15:00:38.804Z,78.14
2022-11-28T15:06:38.311Z,78.13
2022-11-28T15:12:44.363Z,77.61
2022-11-28T15:18:41.217Z,77.22
2022-11-28T15:24:36.485Z,76.98
2022-11-28T15:30:28.778Z,75.84
2022-11-28T15:36:28.700Z,75.86
2022-11-28T15:42:24.611Z,75.21
2022-11-28T15:48:27.745Z,75.03
2022-11-28T15:54:34.771Z,74.81
2022-11-28T16:00:27.096Z,74.84
2022-11-28T16:06:22.774Z,74.51
2022-11-28T16:12:15.441Z,74.59
2022-11-28T16:18:18.203Z,74.19
2022-11-28T16:24:26.209Z,73.97
2022-11-28T16:30:27.323Z,73.73
2022-11-28T16:36:25.060Z,73.76
2022-11-28T16:42:20.562Z,73.74
2022-11-28T16:48:19.681Z,73.10
2022-11-28T16:54:23.026Z,72.94
2022-11-28T17:00:15.765Z,73.51
2022-11-28T17:06:40.921Z,73.74
2022-11-28T17:12:37.480Z,73.45
2022-11-28T17:18:30.262Z,73.72
2022-11-28T17:24:27.683Z,73.63
2022-11-28T17:30:21.623Z,73.41
2022-11-28T17:36:14.169Z,73.70
2022-11-28T17:42:06.741Z,74.09
2022-11-28T17:47:59.955Z,74.25
2022-11-28T17:53:53.404Z,74.26
2022-11-28T17:59:46.219Z,73.48
2022-11-28T18:05:43.583Z,73.58
2022-11-28T18:11:38.809Z,73.45
2022-11-28T18:17:31.522Z,73.11
2022-11-28T18:23:26.159Z,72.99
2022-11-28T18:29:18.160Z,72.91
2022-11-28T18:35:10.967Z,72.80
2022-11-28T18:41:15.701Z,72.75
2022-11-28T18:47:11.068Z,72.89
2022-11-28T18:53:04.532Z,72.50
2022-11-28T18:58:58.547Z,72.67
2022-11-28T19:04:51.877Z,73.36
2022-11-28T19:10:44.982Z,73.56
2022-11-28T19:16:38.579Z,73.90
2022-11-28T19:22:32.186Z,73.92
2022-11-28T19:28:24.862Z,73.96
2022-11-28T19:34:19.256Z,73.93
2022-11-28T19:40:12.122Z,73.22
2022-11-28T19:46:05.718Z,73.47
2022-11-28T19:51:59.906Z,72.95
2022-11-28T19:57:53.084Z,73.36
2022-11-28T20:03:48.031Z,73.75
2022-11-28T20:09:40.734Z,73.04
2022-11-28T20:15:37.529Z,73.18
2022-11-28T20:21:30.403Z,72.94
2022-11-28T20:27:22.574Z,73.50
2022-11-28T20:33:14.826Z,73.51
2022-11-28T20:39:10.499Z,73.84
2022-11-28T20:45:03.785Z,73.57
2022-11-28T20:50:56.685Z,73.90
2022-11-28T21:03:01.846Z,72.96
2022-11-28T21:08:53.724Z,73.08
2022-11-28T21:14:46.221Z,73.18
2022-11-28T21:20:45.605Z,73.34
2022-11-28T21:26:42.451Z,73.37
2022-11-28T21:32:36.523Z,73.45
2022-11-28T21:38:29.882Z,73.61
2022-11-28T21:44:21.808Z,73.37
2022-11-28T21:50:15.068Z,73.25
2022-11-28T21:56:10.242Z,73.24
2022-11-28T22:02:07.180Z,73.89
2022-11-28T22:08:03.302Z,74.62
2022-11-28T22:13:56.148Z,74.29
2022-11-28T22:19:48.826Z,74.84
2022-11-28T22:25:49.648Z,75.08
2022-11-28T22:31:42.269Z,75.17
2022-11-28T22:37:34.687Z,75.10
2022-11-28T22:43:27.128Z,75.14
2022-11-28T22:49:20.141Z,74.89
2022-11-28T22:55:13.410Z,75.10
2022-11-28T23:01:11.448Z,74.76
2022-11-28T23:07:03.948Z,74.76
2022-11-28T23:12:56.950Z,74.78
2022-11-28T23:18:51.903Z,74.67
2022-11-28T23:24:45.187Z,74.53
2022-11-28T23:30:37.900Z,74.10
2022-11-28T23:36:36.987Z,74.67
2022-11-28T23:42:33.344Z,74.44
2022-11-28T23:48:26.784Z,74.42
2022-11-28T23:54:19.101Z,74.38
